Time;durP1;ratioP1;P1;durP2;ratioP2;P2;SDS_P1;SDS_P2;PMS_P1;PMS_P2;Temp;Humidity;BMP_temperature;BMP_pressure;BME280_temperature;BME280_humidity;BME280_pressure;Samples;Min_cycle;Max_cycle;Signal;HPM_P1;HPM_P2
2021/11/02 00:01:32;;;;;;;6.30;1.90;;;;;;;;;;10365528;28;20036;-62
2021/11/02 00:06:33;;;;;;;3.92;1.27;;;;;;;;;;10351323;28;20190;-61
2021/11/02 00:11:31;;;;;;;4.32;1.42;;;;;;;;;;10364033;28;20085;-59
2021/11/02 00:16:29;;;;;;;2.95;1.10;;;;;;;;;;10362750;28;20029;-61
2021/11/02 00:21:29;;;;;;;0.97;0.97;;;;;;;;;;10361022;28;20036;-61
2021/11/02 00:26:27;;;;;;;1.27;0.98;;;;;;;;;;10353787;28;20029;-60
2021/11/02 00:31:24;;;;;;;1.73;1.30;;;;;;;;;;10369090;28;20040;-61
2021/11/02 00:36:22;;;;;;;6.40;1.90;;;;;;;;;;10364081;28;20024;-62
2021/11/02 00:41:20;;;;;;;0.73;0.60;;;;;;;;;;10364130;28;20139;-62
2021/11/02 00:46:23;;;;;;;3.97;0.97;;;;;;;;;;10366513;28;20082;-60
2021/11/02 00:51:21;;;;;;;2.55;1.92;;;;;;;;;;10368133;28;20036;-61
2021/11/02 00:56:18;;;;;;;2.13;1.17;;;;;;;;;;10355376;28;20031;-61
2021/11/02 01:01:16;;;;;;;2.73;1.03;;;;;;;;;;10369387;28;20033;-60
2021/11/02 01:06:13;;;;;;;2.50;1.77;;;;;;;;;;10351678;28;20039;-60
2021/11/02 01:11:13;;;;;;;3.67;1.48;;;;;;;;;;10369361;28;20074;-60
2021/11/02 01:16:10;;;;;;;5.60;1.05;;;;;;;;;;10380262;28;20120;-61
2021/11/02 01:21:08;;;;;;;2.80;1.33;;;;;;;;;;10379723;28;20469;-60
2021/11/02 01:26:06;;;;;;;;;;;;;;;;;;10380331;28;20085;-60
2021/11/02 01:31:03;;;;;;;3.25;1.67;;;;;;;;;;10376687;28;20174;-61
2021/11/02 01:36:02;;;;;;;3.30;1.52;;;;;;;;;;10380550;28;20043;-60
2021/11/02 01:41:00;;;;;;;1.83;1.50;;;;;;;;;;10372283;28;20520;-61
2021/11/02 01:45:57;;;;;;;2.63;1.13;;;;;;;;;;10371556;28;20025;-61
2021/11/02 01:51:01;;;;;;;2.33;1.38;;;;;;;;;;10376566;28;20036;-62
2021/11/02 01:56:01;;;;;;;4.95;1.95;;;;;;;;;;10371827;28;20052;-59
2021/11/02 02:01:01;;;;;;;5.47;2.33;;;;;;;;;;10366540;28;20359;-61
2021/11/02 02:06:14;;;;;;;6.40;1.85;;;;;;;;;;10372682;28;20029;-60
2021/11/02 02:11:32;;;;;;;2.38;1.30;;;;;;;;;;10374958;28;20051;-58
2021/11/02 02:16:33;;;;;;;9.27;2.15;;;;;;;;;;10378367;28;20033;-60
2021/11/02 02:21:50;;;;;;;4.43;1.63;;;;;;;;;;10408789;28;20032;-60
2021/11/02 02:27:14;;;;;;;2.25;1.67;;;;;;;;;;10386261;28;20435;-60
2021/11/02 02:32:16;;;;;;;6.18;1.83;;;;;;;;;;10361588;28;20470;-62
2021/11/02 02:37:17;;;;;;;5.85;2.03;;;;;;;;;;10372469;28;20036;-60
2021/11/02 02:42:19;;;;;;;2.00;1.80;;;;;;;;;;10380091;28;20854;-62
2021/11/02 02:47:18;;;;;;;5.93;1.67;;;;;;;;;;10376069;28;20109;-59
2021/11/02 02:52:16;;;;;;;1.40;1.25;;;;;;;;;;10376159;28;20158;-59
2021/11/02 02:57:22;;;;;;;2.38;1.48;;;;;;;;;;10372308;28;20035;-60
2021/11/02 03:02:22;;;;;;;3.00;1.33;;;;;;;;;;10374734;28;20026;-60
2021/11/02 03:07:21;;;;;;;3.83;1.23;;;;;;;;;;10384448;28;20036;-61
2021/11/02 03:12:18;;;;;;;;;;;;;;;;;;10388701;28;20040;-62
2021/11/02 03:17:20;;;;;;;1.20;0.80;;;;;;;;;;10388112;28;19920;-61
2021/11/02 05:50:36;;;;;;;5.32;2.38;;;;;;;;;;10368774;28;20086;-61
2021/11/02 06:06:14;;;;;;;2.40;1.80;;;;;;;;;;10373210;28;20036;-60
2021/11/02 06:32:26;;;;;;;6.55;2.25;;;;;;;;;;10374450;28;20394;-62
2021/11/02 06:48:17;;;;;;;4.60;2.10;;;;;;;;;;10368726;28;20574;-61
2021/11/02 07:19:12;;;;;;;4.28;2.10;;;;;;;;;;10380439;28;20052;-61
2021/11/02 07:24:28;;;;;;;2.72;1.38;;;;;;;;;;10367220;28;20393;-62
2021/11/02 08:49:10;;;;;;;9.02;2.95;;;;;;;;;;10367137;28;20417;-61
2021/11/02 08:54:07;;;;;;;4.30;2.57;;;;;;;;;;10370407;28;20031;-61
2021/11/02 08:59:05;;;;;;;4.70;2.50;;;;;;;;;;10359022;28;20028;-61
2021/11/02 09:04:03;;;;;;;6.90;3.33;;;;;;;;;;10309481;28;20037;-61
2021/11/02 09:09:04;;;;;;;10.57;3.58;;;;;;;;;;10357691;28;20132;-60
2021/11/02 09:14:02;;;;;;;8.30;3.20;;;;;;;;;;10356221;28;20515;-60
2021/11/02 09:19:01;;;;;;;6.00;3.85;;;;;;;;;;10354018;28;20465;-61
2021/11/02 09:24:01;;;;;;;5.93;2.65;;;;;;;;;;10367470;28;20070;-61
2021/11/02 09:29:02;;;;;;;6.90;4.50;;;;;;;;;;10359040;28;20529;-60
2021/11/02 09:34:00;;;;;;;4.15;2.55;;;;;;;;;;10359969;28;20043;-61
2021/11/02 09:39:03;;;;;;;7.40;3.17;;;;;;;;;;10365094;28;20040;-62
2021/11/02 09:44:02;;;;;;;9.32;4.75;;;;;;;;;;10376036;28;20044;-61
2021/11/02 09:49:06;;;;;;;4.55;2.42;;;;;;;;;;10376602;28;20041;-61
2021/11/02 09:54:05;;;;;;;3.35;2.45;;;;;;;;;;10390105;28;20037;-60
2021/11/02 09:59:17;;;;;;;4.57;2.55;;;;;;;;;;10355468;28;20057;-62
2021/11/02 10:04:34;;;;;;;3.38;2.45;;;;;;;;;;10348263;28;20098;-63
2021/11/02 10:09:38;;;;;;;3.10;1.98;;;;;;;;;;10374979;28;20440;-61
2021/11/02 10:14:40;;;;;;;7.05;2.75;;;;;;;;;;10374301;28;20032;-61
2021/11/02 10:20:02;;;;;;;3.47;2.40;;;;;;;;;;10384397;28;20059;-60
2021/11/02 10:25:05;;;;;;;4.28;2.38;;;;;;;;;;10361514;28;20020;-59
2021/11/02 10:30:23;;;;;;;39.45;3.72;;;;;;;;;;10365878;28;20615;-61
2021/11/02 10:35:44;;;;;;;5.93;2.55;;;;;;;;;;10350646;28;20029;-61
2021/11/02 10:40:50;;;;;;;6.95;3.60;;;;;;;;;;10353850;28;20051;-60
2021/11/02 10:45:54;;;;;;;2.95;1.73;;;;;;;;;;10353048;28;20062;-58
2021/11/02 10:50:57;;;;;;;5.15;2.22;;;;;;;;;;10344346;28;20405;-58
2021/11/02 10:56:11;;;;;;;3.95;2.85;;;;;;;;;;10365192;28;20497;-59
2021/11/02 11:01:10;;;;;;;11.50;2.83;;;;;;;;;;10350478;28;20141;-59
2021/11/02 11:06:09;;;;;;;3.22;1.98;;;;;;;;;;10348961;28;20044;-59
2021/11/02 11:11:11;;;;;;;5.45;2.15;;;;;;;;;;10368888;28;20037;-60
2021/11/02 11:16:13;;;;;;;2.97;2.03;;;;;;;;;;10367903;28;20116;-60
2021/11/02 11:21:11;;;;;;;3.63;1.70;;;;;;;;;;10366572;28;20067;-59
2021/11/02 11:26:09;;;;;;;4.05;1.50;;;;;;;;;;10358405;28;20106;-60
2021/11/02 11:31:07;;;;;;;4.05;1.50;;;;;;;;;;10366033;28;20041;-59
2021/11/02 11:36:06;;;;;;;3.17;2.05;;;;;;;;;;10368369;28;20051;-59
2021/11/02 11:41:05;;;;;;;3.47;1.92;;;;;;;;;;10363385;28;21489;-59
2021/11/02 11:46:04;;;;;;;3.08;1.23;;;;;;;;;;10361852;28;20036;-60
2021/11/02 11:51:02;;;;;;;6.70;2.17;;;;;;;;;;10357618;28;20052;-60
2021/11/02 11:56:01;;;;;;;1.40;1.30;;;;;;;;;;10329627;28;20435;-60
2021/11/02 12:01:05;;;;;;;2.95;1.55;;;;;;;;;;10347077;28;20378;-60
2021/11/02 12:06:09;;;;;;;3.25;1.42;;;;;;;;;;10334466;28;20040;-60
2021/11/02 12:11:07;;;;;;;2.95;1.35;;;;;;;;;;10311933;28;20041;-60
2021/11/02 12:16:19;;;;;;;4.15;1.20;;;;;;;;;;10334410;28;20040;-60
2021/11/02 12:21:18;;;;;;;3.15;1.40;;;;;;;;;;10354364;28;20040;-60
2021/11/02 12:26:17;;;;;;;5.00;1.30;;;;;;;;;;10359226;28;20394;-60
2021/11/02 12:31:16;;;;;;;0.73;0.68;;;;;;;;;;10355382;28;20052;-61
2021/11/02 12:36:19;;;;;;;1.48;0.82;;;;;;;;;;10346727;28;20051;-61
2021/11/02 12:41:23;;;;;;;3.25;1.38;;;;;;;;;;10327581;28;20765;-60
2021/11/02 12:46:20;;;;;;;1.75;1.27;;;;;;;;;;10340655;28;20063;-61
2021/11/02 12:51:20;;;;;;;1.80;0.70;;;;;;;;;;10343037;28;20039;-62
2021/11/02 12:56:20;;;;;;;5.72;1.25;;;;;;;;;;10373887;28;20079;-61
2021/11/02 13:01:34;;;;;;;1.27;0.55;;;;;;;;;;10368604;28;20506;-62
2021/11/02 13:07:01;;;;;;;1.83;1.30;;;;;;;;;;10380682;28;20044;-61
2021/11/02 13:12:03;;;;;;;2.10;1.23;;;;;;;;;;10376236;28;20417;-61
2021/11/02 13:17:02;;;;;;;0.30;0.30;;;;;;;;;;10378742;28;20424;-61
2021/11/02 13:22:23;;;;;;;1.30;0.90;;;;;;;;;;10386774;28;20102;-62
2021/11/02 13:27:31;;;;;;;3.88;1.52;;;;;;;;;;10365117;28;20560;-60
2021/11/02 13:32:28;;;;;;;2.22;1.13;;;;;;;;;;10375777;28;20024;-61
2021/11/02 13:37:25;;;;;;;1.43;1.27;;;;;;;;;;10371037;28;20661;-62
2021/11/02 13:42:41;;;;;;;2.17;0.93;;;;;;;;;;10359573;28;20508;-62
2021/11/02 13:47:40;;;;;;;1.60;0.90;;;;;;;;;;10388853;28;20028;-62
2021/11/02 13:52:39;;;;;;;2.70;1.50;;;;;;;;;;10345432;28;20445;-62
2021/11/02 13:57:36;;;;;;;1.52;1.10;;;;;;;;;;10375681;28;20040;-61
2021/11/02 14:02:34;;;;;;;2.03;1.23;;;;;;;;;;10375416;28;20108;-59
2021/11/02 14:07:32;;;;;;;2.85;1.25;;;;;;;;;;10367235;28;20052;-60
2021/11/02 14:12:30;;;;;;;3.70;1.23;;;;;;;;;;10366593;28;20028;-61
2021/11/02 14:17:29;;;;;;;0.80;0.68;;;;;;;;;;10356680;28;20135;-61
2021/11/02 14:22:41;;;;;;;0.65;0.65;;;;;;;;;;10375873;28;20043;-60
2021/11/02 14:27:43;;;;;;;1.20;1.10;;;;;;;;;;10373624;28;20048;-61
2021/11/02 14:32:47;;;;;;;2.25;1.45;;;;;;;;;;10368392;28;20406;-60
2021/11/02 14:37:45;;;;;;;2.45;1.02;;;;;;;;;;10370980;28;20044;-60
2021/11/02 14:42:44;;;;;;;1.40;1.00;;;;;;;;;;10366343;28;20629;-60
2021/11/02 14:47:42;;;;;;;1.30;0.88;;;;;;;;;;10387315;28;20036;-60
2021/11/02 14:52:39;;;;;;;3.00;2.40;;;;;;;;;;10371488;28;20032;-60
2021/11/02 14:57:38;;;;;;;3.90;2.57;;;;;;;;;;10361187;28;20101;-60
2021/11/02 15:02:37;;;;;;;2.95;0.63;;;;;;;;;;10367723;28;20087;-59
2021/11/02 15:07:35;;;;;;;1.65;0.70;;;;;;;;;;10360977;28;20401;-59
2021/11/02 15:12:34;;;;;;;2.30;0.82;;;;;;;;;;10370637;28;20468;-60
2021/11/02 15:17:31;;;;;;;;;;;;;;;;;;10371364;28;20108;-62
2021/11/02 15:22:30;;;;;;;1.38;1.10;;;;;;;;;;10381525;28;19923;-59
2021/11/02 15:27:29;;;;;;;2.40;0.95;;;;;;;;;;10366498;28;20089;-60
2021/11/02 15:32:34;;;;;;;1.75;1.45;;;;;;;;;;10380599;28;20413;-59
2021/11/02 15:37:31;;;;;;;3.80;3.38;;;;;;;;;;10385569;28;20577;-61
2021/11/02 15:42:32;;;;;;;3.57;3.07;;;;;;;;;;10370845;28;20587;-59
2021/11/02 15:47:30;;;;;;;5.90;1.95;;;;;;;;;;10379698;28;20211;-59
2021/11/02 15:52:28;;;;;;;2.88;1.75;;;;;;;;;;10373167;28;20497;-60
2021/11/02 15:57:26;;;;;;;8.48;2.53;;;;;;;;;;10375540;28;20495;-60
2021/11/02 16:02:32;;;;;;;1.87;1.27;;;;;;;;;;10374250;28;20146;-62
2021/11/02 16:07:30;;;;;;;3.15;1.25;;;;;;;;;;10365686;28;20045;-61
2021/11/02 16:12:32;;;;;;;4.53;1.33;;;;;;;;;;10375764;28;20928;-62
2021/11/02 16:17:30;;;;;;;3.28;1.73;;;;;;;;;;10361156;28;20131;-61
2021/11/02 16:22:28;;;;;;;3.47;1.50;;;;;;;;;;10349220;28;20044;-61
2021/11/02 16:27:25;;;;;;;2.07;1.40;;;;;;;;;;10372426;28;20080;-61
2021/11/02 16:32:23;;;;;;;2.30;1.63;;;;;;;;;;10349282;28;20048;-61
2021/11/02 16:37:39;;;;;;;5.97;3.27;;;;;;;;;;10371308;28;20047;-61
2021/11/02 16:42:37;;;;;;;5.80;3.47;;;;;;;;;;10367335;28;20044;-60
2021/11/02 16:47:34;;;;;;;8.10;5.32;;;;;;;;;;10390118;28;20048;-61
2021/11/02 16:52:32;;;;;;;2.43;2.23;;;;;;;;;;10377786;28;20553;-61
2021/11/02 16:57:30;;;;;;;7.30;3.10;;;;;;;;;;10377136;28;20044;-61
2021/11/02 17:02:29;;;;;;;6.10;3.87;;;;;;;;;;10384292;28;20033;-60
2021/11/02 17:07:49;;;;;;;6.07;3.90;;;;;;;;;;10388100;28;20653;-60
2021/11/02 17:12:48;;;;;;;1.33;1.23;;;;;;;;;;10372194;28;20040;-61
2021/11/02 17:17:45;;;;;;;;;;;;;;;;;;10366947;28;20044;-60
2021/11/02 17:22:44;;;;;;;6.43;2.60;;;;;;;;;;10375008;28;19924;-60
2021/11/02 17:27:42;;;;;;;6.30;2.13;;;;;;;;;;10389741;28;20039;-62
2021/11/02 17:32:40;;;;;;;1.92;1.75;;;;;;;;;;10376366;28;20037;-62
2021/11/02 17:37:38;;;;;;;4.10;2.73;;;;;;;;;;10375512;28;20437;-60
2021/11/02 17:42:36;;;;;;;9.70;3.47;;;;;;;;;;10380412;28;20084;-61
2021/11/02 17:47:34;;;;;;;4.20;3.30;;;;;;;;;;10352166;28;20048;-62
2021/11/02 17:52:31;;;;;;;6.90;3.47;;;;;;;;;;10369158;28;20397;-61
2021/11/02 17:57:29;;;;;;;8.13;3.97;;;;;;;;;;10371772;28;20045;-61
2021/11/02 18:02:27;;;;;;;5.27;3.60;;;;;;;;;;10375827;28;20567;-60
2021/11/02 18:07:25;;;;;;;10.50;4.93;;;;;;;;;;10375890;28;20105;-62
2021/11/02 18:12:26;;;;;;;10.30;5.93;;;;;;;;;;10373131;28;20097;-61
2021/11/02 18:17:24;;;;;;;5.38;3.40;;;;;;;;;;10374923;28;20447;-61
2021/11/02 18:22:22;;;;;;;;;;;;;;;;;;10379959;28;20035;-61
2021/11/02 18:27:21;;;;;;;5.50;3.97;;;;;;;;;;10373824;28;19913;-61
2021/11/02 18:32:20;;;;;;;1.63;1.20;;;;;;;;;;10377329;28;20532;-62
2021/11/02 18:37:18;;;;;;;1.15;1.05;;;;;;;;;;10371182;28;20054;-62
2021/11/02 18:42:15;;;;;;;3.78;2.55;;;;;;;;;;10380747;28;20699;-61
2021/11/02 18:47:15;;;;;;;6.10;2.37;;;;;;;;;;10362818;28;20067;-60
2021/11/02 18:52:13;;;;;;;2.75;2.15;;;;;;;;;;10371062;28;20085;-60
2021/11/02 18:57:11;;;;;;;6.07;3.08;;;;;;;;;;10380395;28;20036;-60
2021/11/02 19:02:08;;;;;;;12.33;5.83;;;;;;;;;;10348473;28;20044;-61
2021/11/02 19:07:06;;;;;;;8.80;5.60;;;;;;;;;;10368772;28;20036;-61
2021/11/02 19:12:04;;;;;;;8.83;4.97;;;;;;;;;;10373169;28;20049;-62
2021/11/02 19:17:01;;;;;;;3.33;2.23;;;;;;;;;;10371796;28;20038;-62
2021/11/02 19:21:59;;;;;;;7.80;2.13;;;;;;;;;;10371241;28;20049;-61
2021/11/02 19:26:56;;;;;;;7.50;2.93;;;;;;;;;;10379519;28;20048;-60
2021/11/02 19:31:54;;;;;;;4.73;3.87;;;;;;;;;;10373486;28;20040;-61
2021/11/02 19:36:55;;;;;;;;;;;;;;;;;;10365654;28;20040;-61
2021/11/02 19:41:52;;;;;;;12.20;7.65;;;;;;;;;;10371885;28;19924;-59
2021/11/02 19:46:49;;;;;;;12.03;6.47;;;;;;;;;;10360806;28;20032;-62
2021/11/02 19:51:47;;;;;;;12.97;7.27;;;;;;;;;;10366236;28;20047;-62
2021/11/02 19:56:45;;;;;;;15.13;8.83;;;;;;;;;;10373222;28;20093;-62
2021/11/02 20:01:42;;;;;;;12.23;7.87;;;;;;;;;;10366685;28;20523;-60
2021/11/02 20:06:41;;;;;;;10.90;7.30;;;;;;;;;;10368666;28;20031;-62
2021/11/02 20:11:43;;;;;;;9.98;6.90;;;;;;;;;;10379026;28;20032;-62
2021/11/02 20:16:43;;;;;;;9.55;7.07;;;;;;;;;;10377319;28;20118;-61
2021/11/02 20:21:42;;;;;;;13.30;7.20;;;;;;;;;;10371296;28;20039;-62
2021/11/02 20:26:39;;;;;;;;;;;;;;;;;;10379907;28;20035;-62
2021/11/02 20:31:39;;;;;;;11.18;7.82;;;;;;;;;;10379268;28;19922;-60
2021/11/02 20:36:38;;;;;;;14.70;8.50;;;;;;;;;;10364750;28;20044;-62
2021/11/02 20:41:36;;;;;;;13.38;8.45;;;;;;;;;;10379856;28;20039;-62
2021/11/02 20:46:37;;;;;;;12.52;8.23;;;;;;;;;;10379015;28;20035;-63
2021/11/02 20:51:35;;;;;;;15.38;8.73;;;;;;;;;;10373187;28;20117;-63
2021/11/02 20:56:33;;;;;;;10.37;7.63;;;;;;;;;;10356584;28;20096;-61
2021/11/02 21:01:31;;;;;;;14.15;8.40;;;;;;;;;;10375030;28;20291;-60
2021/11/02 21:06:33;;;;;;;11.10;7.30;;;;;;;;;;10373265;28;20040;-62
2021/11/02 21:11:41;;;;;;;22.77;11.45;;;;;;;;;;10359541;28;20483;-61
2021/11/02 21:16:43;;;;;;;19.87;11.70;;;;;;;;;;10363900;28;20044;-62
2021/11/02 21:21:41;;;;;;;21.52;13.65;;;;;;;;;;10364152;28;20035;-62
2021/11/02 21:26:39;;;;;;;19.37;11.43;;;;;;;;;;10339017;28;20017;-63
2021/11/02 21:31:36;;;;;;;18.05;11.05;;;;;;;;;;10368158;28;20525;-63
2021/11/02 21:36:34;;;;;;;12.00;6.13;;;;;;;;;;10359032;28;20041;-61
2021/11/02 21:41:37;;;;;;;24.00;12.35;;;;;;;;;;10376129;28;20052;-62
2021/11/02 21:46:38;;;;;;;21.23;12.73;;;;;;;;;;10359361;28;20573;-61
2021/11/02 21:51:36;;;;;;;20.17;10.20;;;;;;;;;;10365582;28;20941;-60
2021/11/02 21:56:38;;;;;;;24.08;13.45;;;;;;;;;;10370542;28;20024;-61
2021/11/02 22:01:37;;;;;;;23.55;13.82;;;;;;;;;;10363104;28;20085;-60
2021/11/02 22:06:35;;;;;;;23.10;12.18;;;;;;;;;;10377420;28;20036;-62
2021/11/02 22:11:33;;;;;;;25.67;13.73;;;;;;;;;;10349610;28;20378;-61
2021/11/02 22:16:31;;;;;;;20.83;12.57;;;;;;;;;;10347853;28;20035;-60
2021/11/02 22:21:28;;;;;;;22.13;12.30;;;;;;;;;;10361296;28;20036;-62
2021/11/02 22:26:27;;;;;;;18.50;9.10;;;;;;;;;;10329013;28;20420;-61
2021/11/02 22:31:24;;;;;;;20.85;11.45;;;;;;;;;;10370159;28;20041;-62
2021/11/02 22:36:22;;;;;;;26.40;14.43;;;;;;;;;;10364212;28;20510;-61
2021/11/02 22:41:19;;;;;;;24.67;13.23;;;;;;;;;;10371589;28;20032;-61
2021/11/02 22:46:17;;;;;;;10.57;5.53;;;;;;;;;;10364138;28;20377;-62
2021/11/02 22:51:14;;;;;;;26.00;14.73;;;;;;;;;;10363290;28;20032;-60
2021/11/02 22:56:12;;;;;;;27.90;14.47;;;;;;;;;;10371375;28;20036;-62
2021/11/02 23:01:09;;;;;;;26.93;14.67;;;;;;;;;;10352212;28;20044;-60
2021/11/02 23:06:08;;;;;;;23.83;11.87;;;;;;;;;;10350540;28;20037;-61
2021/11/02 23:11:05;;;;;;;29.02;15.82;;;;;;;;;;10356926;28;20498;-62
2021/11/02 23:16:03;;;;;;;18.67;9.67;;;;;;;;;;10364858;28;20036;-61
2021/11/02 23:21:00;;;;;;;31.00;14.40;;;;;;;;;;10378240;28;20036;-61
2021/11/02 23:26:02;;;;;;;15.05;8.57;;;;;;;;;;10375651;28;20488;-62
2021/11/02 23:31:01;;;;;;;27.38;13.20;;;;;;;;;;10376222;28;20082;-62
2021/11/02 23:36:00;;;;;;;27.70;14.38;;;;;;;;;;10363434;28;20506;-62
2021/11/02 23:40:58;;;;;;;29.17;13.55;;;;;;;;;;10365132;28;20029;-60
2021/11/02 23:45:56;;;;;;;20.87;11.00;;;;;;;;;;10370760;28;20037;-60
2021/11/02 23:50:54;;;;;;;19.80;8.93;;;;;;;;;;10371657;28;20055;-59
2021/11/02 23:55:51;;;;;;;;;;;;;;;;;;10359328;28;20163;-61
